Hlavní strana
METAR-TAF:

METAR-TAF

Letiště :

Treviso, Itálie

zeměpisná šířka: 45-41N, zeměpisná délka: 012-06E, výška: 45 m

Aktuální stav počasí

Zpráva byla vytvořena před 53 minutami, v 00:55 UTC
Severoseverovýchodní vítr 5 kt
Teplota 23°C
Vlhkost vzduchu 89%
Tlak 1017 hPa
Viditelnost 10 km a více
Žádná oblačnost pod 1500 m, nevyskytují se cumulonimby.

METAR: LIPS 190055Z 02005KT CAVOK 23/21 Q1017 RMK SCT SCT120 VIS MIN 9999 WIND THR26 05002KT WIND THR08 06002KT BLU

Čas: 03:48 (01:48 UTC)

Předpověď počasí

Zpráva byla vytvořena před 2 hodinami a 48 minutami, v 23:00 UTC
Předpověď platná od 19 v 00 UTC do 19 v 09 UTC
Severoseverovýchodní vítr 5 kt
Viditelnost 10 km a více
Polojasno ve výšce 10000 ft

TAF: LIPS 182300Z 1900/1909 02005KT 9999 SCT100

Stav a předpovědi počasí z více než 4 000 letišť (zprávy METAR a TAF).

Červené a žluté tečky na mapě představují dostupné meteorologické stanice.

Když kurzor umístíte na tečku, zobrazí se název stanice.

Pak kliknutím zobrazíte stav a předpověď počasí.

Chcete-li změnit mapu, kliknutím na zelené tlačítko se znaménkem +mapu přiblížíte, kliknutím na zelené tlačítko se znaménkem – mapu oddálíte a kliknutím na zelené šipky přejdete na sousední mapy.


METAR-TAF: